sensor_id;sensor_type;location;lat;lon;timestamp;temperature;humidity
44851;DHT22;30583;48.714;9.386;2022-07-15T00:00:06;26.20;35.30
44851;DHT22;30583;48.714;9.386;2022-07-15T00:02:33;26.40;35.00
44851;DHT22;30583;48.714;9.386;2022-07-15T00:04:58;26.80;34.40
44851;DHT22;30583;48.714;9.386;2022-07-15T00:07:24;26.70;34.20
44851;DHT22;30583;48.714;9.386;2022-07-15T00:09:49;26.80;34.20
44851;DHT22;30583;48.714;9.386;2022-07-15T00:12:34;26.70;34.60
44851;DHT22;30583;48.714;9.386;2022-07-15T00:15:00;26.80;34.10
44851;DHT22;30583;48.714;9.386;2022-07-15T00:17:26;27.00;34.00
44851;DHT22;30583;48.714;9.386;2022-07-15T00:19:52;27.00;34.10
44851;DHT22;30583;48.714;9.386;2022-07-15T00:22:18;26.70;34.20
44851;DHT22;30583;48.714;9.386;2022-07-15T00:24:44;26.50;34.70
44851;DHT22;30583;48.714;9.386;2022-07-15T00:27:09;26.70;34.40
44851;DHT22;30583;48.714;9.386;2022-07-15T00:29:35;26.50;34.70
44851;DHT22;30583;48.714;9.386;2022-07-15T00:32:01;26.60;34.70
44851;DHT22;30583;48.714;9.386;2022-07-15T00:34:26;26.60;34.80
44851;DHT22;30583;48.714;9.386;2022-07-15T00:36:52;26.20;35.30
44851;DHT22;30583;48.714;9.386;2022-07-15T00:39:18;26.10;35.20
44851;DHT22;30583;48.714;9.386;2022-07-15T00:41:44;26.20;35.20
44851;DHT22;30583;48.714;9.386;2022-07-15T00:44:10;26.50;34.50
44851;DHT22;30583;48.714;9.386;2022-07-15T00:46:36;26.40;34.70
44851;DHT22;30583;48.714;9.386;2022-07-15T00:49:07;26.50;34.60
44851;DHT22;30583;48.714;9.386;2022-07-15T00:51:46;26.40;34.40
44851;DHT22;30583;48.714;9.386;2022-07-15T00:54:13;26.40;34.60
44851;DHT22;30583;48.714;9.386;2022-07-15T00:56:51;26.20;34.70
44851;DHT22;30583;48.714;9.386;2022-07-15T00:59:19;26.10;35.10
44851;DHT22;30583;48.714;9.386;2022-07-15T01:01:45;26.30;35.00
44851;DHT22;30583;48.714;9.386;2022-07-15T01:04:12;26.40;34.70
44851;DHT22;30583;48.714;9.386;2022-07-15T01:06:38;26.50;34.70
44851;DHT22;30583;48.714;9.386;2022-07-15T01:09:04;26.50;34.70
44851;DHT22;30583;48.714;9.386;2022-07-15T01:11:30;26.30;34.60
44851;DHT22;30583;48.714;9.386;2022-07-15T01:14:00;26.30;34.50
44851;DHT22;30583;48.714;9.386;2022-07-15T01:16:26;26.30;34.10
44851;DHT22;30583;48.714;9.386;2022-07-15T01:18:52;26.30;34.40
44851;DHT22;30583;48.714;9.386;2022-07-15T01:21:18;26.00;34.70
44851;DHT22;30583;48.714;9.386;2022-07-15T01:23:43;26.10;34.60
44851;DHT22;30583;48.714;9.386;2022-07-15T01:26:13;26.10;34.30
44851;DHT22;30583;48.714;9.386;2022-07-15T01:28:40;26.20;34.20
44851;DHT22;30583;48.714;9.386;2022-07-15T01:31:06;26.10;34.40
44851;DHT22;30583;48.714;9.386;2022-07-15T01:33:33;26.00;34.80
44851;DHT22;30583;48.714;9.386;2022-07-15T01:35:59;26.20;34.90
44851;DHT22;30583;48.714;9.386;2022-07-15T01:38:27;26.20;35.30
44851;DHT22;30583;48.714;9.386;2022-07-15T01:40:53;26.00;35.80
44851;DHT22;30583;48.714;9.386;2022-07-15T01:43:18;26.00;35.90
44851;DHT22;30583;48.714;9.386;2022-07-15T01:45:45;25.80;36.00
44851;DHT22;30583;48.714;9.386;2022-07-15T01:48:11;25.90;36.30
44851;DHT22;30583;48.714;9.386;2022-07-15T01:50:59;25.70;36.40
44851;DHT22;30583;48.714;9.386;2022-07-15T01:53:26;25.70;36.70
44851;DHT22;30583;48.714;9.386;2022-07-15T01:55:52;25.70;37.00
44851;DHT22;30583;48.714;9.386;2022-07-15T01:58:18;25.70;37.30
44851;DHT22;30583;48.714;9.386;2022-07-15T02:00:45;25.70;37.70
44851;DHT22;30583;48.714;9.386;2022-07-15T02:03:10;25.60;38.00
44851;DHT22;30583;48.714;9.386;2022-07-15T02:05:36;25.20;38.90
44851;DHT22;30583;48.714;9.386;2022-07-15T02:08:02;24.50;40.50
44851;DHT22;30583;48.714;9.386;2022-07-15T02:10:29;24.00;41.60
44851;DHT22;30583;48.714;9.386;2022-07-15T02:13:09;23.60;42.50
44851;DHT22;30583;48.714;9.386;2022-07-15T02:15:35;23.20;43.10
44851;DHT22;30583;48.714;9.386;2022-07-15T02:18:01;23.20;43.20
44851;DHT22;30583;48.714;9.386;2022-07-15T02:20:27;22.90;43.80
44851;DHT22;30583;48.714;9.386;2022-07-15T02:22:54;23.00;43.40
44851;DHT22;30583;48.714;9.386;2022-07-15T02:25:25;22.60;44.20
44851;DHT22;30583;48.714;9.386;2022-07-15T02:27:54;22.50;44.50
44851;DHT22;30583;48.714;9.386;2022-07-15T02:30:28;22.50;44.70
44851;DHT22;30583;48.714;9.386;2022-07-15T02:32:54;22.20;45.40
44851;DHT22;30583;48.714;9.386;2022-07-15T02:35:21;22.10;46.00
44851;DHT22;30583;48.714;9.386;2022-07-15T02:37:47;22.00;45.80
44851;DHT22;30583;48.714;9.386;2022-07-15T02:40:12;21.90;46.10
44851;DHT22;30583;48.714;9.386;2022-07-15T02:42:39;22.00;45.70
44851;DHT22;30583;48.714;9.386;2022-07-15T02:45:05;21.70;46.20
44851;DHT22;30583;48.714;9.386;2022-07-15T02:47:31;21.90;45.90
44851;DHT22;30583;48.714;9.386;2022-07-15T02:49:57;21.70;46.60
44851;DHT22;30583;48.714;9.386;2022-07-15T02:52:22;21.40;46.60
44851;DHT22;30583;48.714;9.386;2022-07-15T02:54:48;21.20;46.90
44851;DHT22;30583;48.714;9.386;2022-07-15T02:57:14;21.50;46.70
44851;DHT22;30583;48.714;9.386;2022-07-15T02:59:39;21.20;46.90
44851;DHT22;30583;48.714;9.386;2022-07-15T03:02:05;21.40;47.60
44851;DHT22;30583;48.714;9.386;2022-07-15T03:04:31;21.80;47.20
44851;DHT22;30583;48.714;9.386;2022-07-15T03:06:56;21.20;48.50
44851;DHT22;30583;48.714;9.386;2022-07-15T03:09:22;21.00;49.10
44851;DHT22;30583;48.714;9.386;2022-07-15T03:11:47;20.70;49.60
44851;DHT22;30583;48.714;9.386;2022-07-15T03:14:13;21.00;49.10
44851;DHT22;30583;48.714;9.386;2022-07-15T03:16:39;20.90;48.80
44851;DHT22;30583;48.714;9.386;2022-07-15T03:19:04;21.00;48.70
44851;DHT22;30583;48.714;9.386;2022-07-15T03:21:30;20.90;47.90
44851;DHT22;30583;48.714;9.386;2022-07-15T03:23:56;20.90;48.20
44851;DHT22;30583;48.714;9.386;2022-07-15T03:26:21;20.80;48.40
44851;DHT22;30583;48.714;9.386;2022-07-15T03:28:47;20.50;49.20
44851;DHT22;30583;48.714;9.386;2022-07-15T03:31:12;20.40;49.50
44851;DHT22;30583;48.714;9.386;2022-07-15T03:33:38;20.50;49.90
44851;DHT22;30583;48.714;9.386;2022-07-15T03:36:04;20.70;49.30
44851;DHT22;30583;48.714;9.386;2022-07-15T03:38:31;20.30;50.10
44851;DHT22;30583;48.714;9.386;2022-07-15T03:40:56;20.50;50.10
44851;DHT22;30583;48.714;9.386;2022-07-15T03:43:22;20.30;49.80
44851;DHT22;30583;48.714;9.386;2022-07-15T03:45:52;20.50;49.60
44851;DHT22;30583;48.714;9.386;2022-07-15T03:48:18;20.20;50.90
44851;DHT22;30583;48.714;9.386;2022-07-15T03:50:44;20.00;51.60
44851;DHT22;30583;48.714;9.386;2022-07-15T03:53:09;20.10;51.70
44851;DHT22;30583;48.714;9.386;2022-07-15T03:55:36;20.40;51.10
44851;DHT22;30583;48.714;9.386;2022-07-15T03:58:03;20.40;51.20
44851;DHT22;30583;48.714;9.386;2022-07-15T04:00:29;20.40;51.30
44851;DHT22;30583;48.714;9.386;2022-07-15T04:02:55;19.80;52.80
44851;DHT22;30583;48.714;9.386;2022-07-15T04:05:20;20.10;51.70
44851;DHT22;30583;48.714;9.386;2022-07-15T04:07:47;20.10;51.90
44851;DHT22;30583;48.714;9.386;2022-07-15T04:10:13;20.00;52.30
44851;DHT22;30583;48.714;9.386;2022-07-15T04:12:39;19.90;52.40
44851;DHT22;30583;48.714;9.386;2022-07-15T04:15:05;20.20;52.40
44851;DHT22;30583;48.714;9.386;2022-07-15T04:17:31;19.90;52.50
44851;DHT22;30583;48.714;9.386;2022-07-15T04:19:56;20.00;52.90
44851;DHT22;30583;48.714;9.386;2022-07-15T04:22:22;20.10;52.50
44851;DHT22;30583;48.714;9.386;2022-07-15T04:24:48;20.00;52.50
44851;DHT22;30583;48.714;9.386;2022-07-15T04:27:13;19.90;52.70
44851;DHT22;30583;48.714;9.386;2022-07-15T04:29:39;19.90;52.80
44851;DHT22;30583;48.714;9.386;2022-07-15T04:32:05;20.00;53.40
44851;DHT22;30583;48.714;9.386;2022-07-15T04:34:31;20.00;53.40
44851;DHT22;30583;48.714;9.386;2022-07-15T04:36:56;19.90;53.10
44851;DHT22;30583;48.714;9.386;2022-07-15T04:39:22;19.80;53.10
44851;DHT22;30583;48.714;9.386;2022-07-15T04:41:47;19.80;52.80
44851;DHT22;30583;48.714;9.386;2022-07-15T04:44:15;21.60;61.90
44851;DHT22;30583;48.714;9.386;2022-07-15T04:46:41;22.90;55.00
44851;DHT22;30583;48.714;9.386;2022-07-15T04:49:07;23.10;53.00
44851;DHT22;30583;48.714;9.386;2022-07-15T04:51:51;23.10;51.10
44851;DHT22;30583;48.714;9.386;2022-07-15T04:54:16;23.20;50.40
44851;DHT22;30583;48.714;9.386;2022-07-15T04:56:42;23.20;49.90
44851;DHT22;30583;48.714;9.386;2022-07-15T04:59:08;23.20;49.20
44851;DHT22;30583;48.714;9.386;2022-07-15T05:01:33;23.20;48.60
44851;DHT22;30583;48.714;9.386;2022-07-15T05:03:59;23.20;48.70
44851;DHT22;30583;48.714;9.386;2022-07-15T05:06:24;23.10;48.30
44851;DHT22;30583;48.714;9.386;2022-07-15T05:08:50;23.10;48.50
44851;DHT22;30583;48.714;9.386;2022-07-15T05:11:15;23.10;48.00
44851;DHT22;30583;48.714;9.386;2022-07-15T05:13:41;23.10;48.10
44851;DHT22;30583;48.714;9.386;2022-07-15T05:16:07;23.20;47.90
44851;DHT22;30583;48.714;9.386;2022-07-15T05:18:32;23.20;47.90
44851;DHT22;30583;48.714;9.386;2022-07-15T05:20:58;23.20;49.10
44851;DHT22;30583;48.714;9.386;2022-07-15T05:23:24;23.00;46.60
44851;DHT22;30583;48.714;9.386;2022-07-15T05:25:49;22.00;48.80
44851;DHT22;30583;48.714;9.386;2022-07-15T05:28:15;21.70;49.30
44851;DHT22;30583;48.714;9.386;2022-07-15T05:30:41;21.30;50.00
44851;DHT22;30583;48.714;9.386;2022-07-15T05:33:07;21.20;50.70
44851;DHT22;30583;48.714;9.386;2022-07-15T05:35:32;21.20;50.60
44851;DHT22;30583;48.714;9.386;2022-07-15T05:37:58;21.00;51.20
44851;DHT22;30583;48.714;9.386;2022-07-15T05:40:23;21.00;51.50
44851;DHT22;30583;48.714;9.386;2022-07-15T05:42:49;21.20;51.00
44851;DHT22;30583;48.714;9.386;2022-07-15T05:45:15;21.40;50.80
44851;DHT22;30583;48.714;9.386;2022-07-15T05:47:47;21.30;51.10
44851;DHT22;30583;48.714;9.386;2022-07-15T05:50:13;21.30;50.90
44851;DHT22;30583;48.714;9.386;2022-07-15T05:52:40;21.50;50.60
44851;DHT22;30583;48.714;9.386;2022-07-15T05:55:06;21.30;51.00
44851;DHT22;30583;48.714;9.386;2022-07-15T05:57:32;21.40;50.00
44851;DHT22;30583;48.714;9.386;2022-07-15T05:59:58;21.30;50.20
44851;DHT22;30583;48.714;9.386;2022-07-15T06:02:23;21.30;51.20
44851;DHT22;30583;48.714;9.386;2022-07-15T06:04:49;21.20;51.30
44851;DHT22;30583;48.714;9.386;2022-07-15T06:07:14;21.10;51.20
44851;DHT22;30583;48.714;9.386;2022-07-15T06:09:40;20.90;51.80
44851;DHT22;30583;48.714;9.386;2022-07-15T06:12:06;20.90;51.80
44851;DHT22;30583;48.714;9.386;2022-07-15T06:14:31;21.10;51.60
44851;DHT22;30583;48.714;9.386;2022-07-15T06:16:57;21.10;51.50
44851;DHT22;30583;48.714;9.386;2022-07-15T06:19:22;21.30;50.90
44851;DHT22;30583;48.714;9.386;2022-07-15T06:21:48;21.20;50.50
44851;DHT22;30583;48.714;9.386;2022-07-15T06:24:14;21.30;50.60
44851;DHT22;30583;48.714;9.386;2022-07-15T06:26:39;21.50;50.00
44851;DHT22;30583;48.714;9.386;2022-07-15T06:29:05;21.40;50.00
44851;DHT22;30583;48.714;9.386;2022-07-15T06:31:31;21.20;50.40
44851;DHT22;30583;48.714;9.386;2022-07-15T06:33:56;21.20;50.60
44851;DHT22;30583;48.714;9.386;2022-07-15T06:36:25;21.30;50.60
44851;DHT22;30583;48.714;9.386;2022-07-15T06:38:51;21.20;50.60
44851;DHT22;30583;48.714;9.386;2022-07-15T06:41:16;21.20;50.90
44851;DHT22;30583;48.714;9.386;2022-07-15T06:43:44;21.30;50.10
44851;DHT22;30583;48.714;9.386;2022-07-15T06:46:10;21.40;49.80
44851;DHT22;30583;48.714;9.386;2022-07-15T06:48:36;21.70;49.40
44851;DHT22;30583;48.714;9.386;2022-07-15T06:51:04;21.90;49.00
44851;DHT22;30583;48.714;9.386;2022-07-15T06:53:29;22.00;48.90
44851;DHT22;30583;48.714;9.386;2022-07-15T06:55:55;21.80;48.70
44851;DHT22;30583;48.714;9.386;2022-07-15T06:58:21;21.70;48.90
44851;DHT22;30583;48.714;9.386;2022-07-15T07:00:47;21.30;49.20
44851;DHT22;30583;48.714;9.386;2022-07-15T07:03:13;21.50;48.80
44851;DHT22;30583;48.714;9.386;2022-07-15T07:05:38;21.80;48.60
44851;DHT22;30583;48.714;9.386;2022-07-15T07:08:04;22.10;47.90
44851;DHT22;30583;48.714;9.386;2022-07-15T07:10:31;22.10;48.00
44851;DHT22;30583;48.714;9.386;2022-07-15T07:12:56;21.80;48.20
44851;DHT22;30583;48.714;9.386;2022-07-15T07:15:22;22.00;48.20
44851;DHT22;30583;48.714;9.386;2022-07-15T07:17:52;22.20;47.90
44851;DHT22;30583;48.714;9.386;2022-07-15T07:20:18;22.30;47.90
44851;DHT22;30583;48.714;9.386;2022-07-15T07:22:43;22.50;47.50
44851;DHT22;30583;48.714;9.386;2022-07-15T07:25:09;22.40;47.10
44851;DHT22;30583;48.714;9.386;2022-07-15T07:27:35;22.40;46.30
44851;DHT22;30583;48.714;9.386;2022-07-15T07:30:01;22.40;43.50
44851;DHT22;30583;48.714;9.386;2022-07-15T07:32:32;22.30;43.70
44851;DHT22;30583;48.714;9.386;2022-07-15T07:34:58;22.50;44.90
44851;DHT22;30583;48.714;9.386;2022-07-15T07:37:24;22.70;45.50
44851;DHT22;30583;48.714;9.386;2022-07-15T07:39:50;22.70;45.10
44851;DHT22;30583;48.714;9.386;2022-07-15T07:42:16;22.70;45.00
44851;DHT22;30583;48.714;9.386;2022-07-15T07:44:42;22.70;44.20
44851;DHT22;30583;48.714;9.386;2022-07-15T07:47:11;22.80;42.40
44851;DHT22;30583;48.714;9.386;2022-07-15T07:49:37;22.90;42.00
44851;DHT22;30583;48.714;9.386;2022-07-15T07:52:03;22.70;40.20
44851;DHT22;30583;48.714;9.386;2022-07-15T07:54:30;22.60;40.20
44851;DHT22;30583;48.714;9.386;2022-07-15T07:56:56;22.70;40.10
44851;DHT22;30583;48.714;9.386;2022-07-15T07:59:21;22.80;39.50
44851;DHT22;30583;48.714;9.386;2022-07-15T08:01:47;22.70;40.20
44851;DHT22;30583;48.714;9.386;2022-07-15T08:04:13;22.90;40.30
44851;DHT22;30583;48.714;9.386;2022-07-15T08:06:40;22.80;39.40
44851;DHT22;30583;48.714;9.386;2022-07-15T08:09:06;22.90;39.10
44851;DHT22;30583;48.714;9.386;2022-07-15T08:11:31;23.10;39.20
44851;DHT22;30583;48.714;9.386;2022-07-15T08:13:57;23.10;39.80
44851;DHT22;30583;48.714;9.386;2022-07-15T08:16:23;23.20;39.90
44851;DHT22;30583;48.714;9.386;2022-07-15T08:18:49;23.50;40.00
44851;DHT22;30583;48.714;9.386;2022-07-15T08:21:14;23.70;40.50
44851;DHT22;30583;48.714;9.386;2022-07-15T08:23:40;23.70;40.20
44851;DHT22;30583;48.714;9.386;2022-07-15T08:26:06;23.80;39.90
44851;DHT22;30583;48.714;9.386;2022-07-15T08:28:33;24.10;39.60
44851;DHT22;30583;48.714;9.386;2022-07-15T08:30:59;24.10;38.70
44851;DHT22;30583;48.714;9.386;2022-07-15T08:33:24;23.80;39.30
44851;DHT22;30583;48.714;9.386;2022-07-15T08:35:50;23.90;38.70
44851;DHT22;30583;48.714;9.386;2022-07-15T08:38:16;23.80;38.40
44851;DHT22;30583;48.714;9.386;2022-07-15T08:40:41;23.70;38.10
44851;DHT22;30583;48.714;9.386;2022-07-15T08:43:10;24.20;38.70
44851;DHT22;30583;48.714;9.386;2022-07-15T08:45:39;24.10;38.90
44851;DHT22;30583;48.714;9.386;2022-07-15T08:48:05;24.20;37.60
44851;DHT22;30583;48.714;9.386;2022-07-15T08:50:33;24.10;38.40
44851;DHT22;30583;48.714;9.386;2022-07-15T08:52:59;24.20;36.70
44851;DHT22;30583;48.714;9.386;2022-07-15T08:55:25;24.20;37.70
44851;DHT22;30583;48.714;9.386;2022-07-15T08:57:52;24.30;37.20
44851;DHT22;30583;48.714;9.386;2022-07-15T09:00:23;24.50;38.20
44851;DHT22;30583;48.714;9.386;2022-07-15T09:03:02;24.40;36.60
44851;DHT22;30583;48.714;9.386;2022-07-15T09:05:36;24.50;37.20
44851;DHT22;30583;48.714;9.386;2022-07-15T09:08:14;24.70;38.10
44851;DHT22;30583;48.714;9.386;2022-07-15T09:13:30;24.30;37.10
44851;DHT22;30583;48.714;9.386;2022-07-15T09:15:58;24.70;36.70
44851;DHT22;30583;48.714;9.386;2022-07-15T09:18:29;24.60;36.20
44851;DHT22;30583;48.714;9.386;2022-07-15T09:20:56;24.60;36.20
44851;DHT22;30583;48.714;9.386;2022-07-15T09:23:24;24.90;36.30
44851;DHT22;30583;48.714;9.386;2022-07-15T09:26:43;24.90;36.70
44851;DHT22;30583;48.714;9.386;2022-07-15T09:28:44;24.80;36.90
44851;DHT22;30583;48.714;9.386;2022-07-15T09:31:10;24.80;36.60
44851;DHT22;30583;48.714;9.386;2022-07-15T09:34:01;24.90;36.80
44851;DHT22;30583;48.714;9.386;2022-07-15T09:36:30;25.20;36.50
44851;DHT22;30583;48.714;9.386;2022-07-15T09:38:58;25.20;36.20
44851;DHT22;30583;48.714;9.386;2022-07-15T09:41:38;25.10;36.00
44851;DHT22;30583;48.714;9.386;2022-07-15T09:44:10;24.80;37.00
44851;DHT22;30583;48.714;9.386;2022-07-15T09:49:30;25.60;37.90
44851;DHT22;30583;48.714;9.386;2022-07-15T09:52:16;25.50;36.30
44851;DHT22;30583;48.714;9.386;2022-07-15T09:54:48;25.30;35.70
44851;DHT22;30583;48.714;9.386;2022-07-15T09:57:19;25.10;35.60
44851;DHT22;30583;48.714;9.386;2022-07-15T09:59:48;25.10;36.30
44851;DHT22;30583;48.714;9.386;2022-07-15T10:02:16;25.00;36.20
44851;DHT22;30583;48.714;9.386;2022-07-15T10:04:41;25.60;37.00
44851;DHT22;30583;48.714;9.386;2022-07-15T10:07:11;25.80;36.80
44851;DHT22;30583;48.714;9.386;2022-07-15T10:09:37;26.00;37.70
44851;DHT22;30583;48.714;9.386;2022-07-15T10:12:13;26.20;37.40
44851;DHT22;30583;48.714;9.386;2022-07-15T10:15:10;26.20;37.10
44851;DHT22;30583;48.714;9.386;2022-07-15T10:18:01;26.20;37.30
44851;DHT22;30583;48.714;9.386;2022-07-15T10:20:45;26.20;37.20
44851;DHT22;30583;48.714;9.386;2022-07-15T10:31:21;25.40;37.20
44851;DHT22;30583;48.714;9.386;2022-07-15T10:36:40;25.70;34.50
44851;DHT22;30583;48.714;9.386;2022-07-15T10:39:07;26.00;36.20
44851;DHT22;30583;48.714;9.386;2022-07-15T10:42:02;26.00;34.60
44851;DHT22;30583;48.714;9.386;2022-07-15T10:44:34;26.70;34.70
44851;DHT22;30583;48.714;9.386;2022-07-15T10:49:38;27.10;33.60
44851;DHT22;30583;48.714;9.386;2022-07-15T10:52:30;26.70;34.80
44851;DHT22;30583;48.714;9.386;2022-07-15T10:57:50;26.90;32.60
44851;DHT22;30583;48.714;9.386;2022-07-15T11:05:32;27.50;35.00
44851;DHT22;30583;48.714;9.386;2022-07-15T11:07:58;27.40;32.80
44851;DHT22;30583;48.714;9.386;2022-07-15T11:10:24;27.40;33.90
44851;DHT22;30583;48.714;9.386;2022-07-15T11:15:19;27.20;32.30
44851;DHT22;30583;48.714;9.386;2022-07-15T11:17:52;27.40;33.10
44851;DHT22;30583;48.714;9.386;2022-07-15T11:20:31;27.50;33.10
44851;DHT22;30583;48.714;9.386;2022-07-15T11:22:59;27.70;33.50
44851;DHT22;30583;48.714;9.386;2022-07-15T11:25:31;27.90;33.50
44851;DHT22;30583;48.714;9.386;2022-07-15T11:28:05;27.70;33.00
44851;DHT22;30583;48.714;9.386;2022-07-15T11:33:11;27.40;33.30
44851;DHT22;30583;48.714;9.386;2022-07-15T11:35:44;27.30;33.80
44851;DHT22;30583;48.714;9.386;2022-07-15T11:38:11;27.80;34.40
44851;DHT22;30583;48.714;9.386;2022-07-15T11:40:42;27.80;33.70
44851;DHT22;30583;48.714;9.386;2022-07-15T11:43:26;27.20;34.20
44851;DHT22;30583;48.714;9.386;2022-07-15T11:46:10;27.10;33.60
44851;DHT22;30583;48.714;9.386;2022-07-15T11:48:37;27.60;33.80
44851;DHT22;30583;48.714;9.386;2022-07-15T11:51:03;27.50;32.70
44851;DHT22;30583;48.714;9.386;2022-07-15T11:53:41;27.10;34.40
44851;DHT22;30583;48.714;9.386;2022-07-15T11:56:09;27.40;33.80
44851;DHT22;30583;48.714;9.386;2022-07-15T11:58:39;28.30;33.90
44851;DHT22;30583;48.714;9.386;2022-07-15T12:01:11;28.20;33.40
44851;DHT22;30583;48.714;9.386;2022-07-15T12:06:08;28.00;33.40
44851;DHT22;30583;48.714;9.386;2022-07-15T12:08:43;28.40;33.90
44851;DHT22;30583;48.714;9.386;2022-07-15T12:11:33;28.00;31.80
44851;DHT22;30583;48.714;9.386;2022-07-15T12:14:14;28.20;32.60
44851;DHT22;30583;48.714;9.386;2022-07-15T12:16:45;28.20;32.50
44851;DHT22;30583;48.714;9.386;2022-07-15T12:21:46;28.40;32.10
44851;DHT22;30583;48.714;9.386;2022-07-15T12:24:17;28.20;34.00
44851;DHT22;30583;48.714;9.386;2022-07-15T12:29:20;28.30;34.10
44851;DHT22;30583;48.714;9.386;2022-07-15T12:31:52;28.70;34.30
44851;DHT22;30583;48.714;9.386;2022-07-15T12:34:18;29.00;33.30
44851;DHT22;30583;48.714;9.386;2022-07-15T12:36:57;28.70;34.00
44851;DHT22;30583;48.714;9.386;2022-07-15T12:39:23;28.40;34.40
44851;DHT22;30583;48.714;9.386;2022-07-15T12:42:17;28.40;32.90
44851;DHT22;30583;48.714;9.386;2022-07-15T12:44:43;28.60;32.50
44851;DHT22;30583;48.714;9.386;2022-07-15T12:47:08;28.50;32.80
44851;DHT22;30583;48.714;9.386;2022-07-15T12:49:50;28.70;31.90
44851;DHT22;30583;48.714;9.386;2022-07-15T12:52:36;27.70;31.50
44851;DHT22;30583;48.714;9.386;2022-07-15T12:55:20;28.20;31.10
44851;DHT22;30583;48.714;9.386;2022-07-15T12:57:46;28.30;32.70
44851;DHT22;30583;48.714;9.386;2022-07-15T13:00:13;28.70;32.90
44851;DHT22;30583;48.714;9.386;2022-07-15T13:03:15;28.40;33.10
44851;DHT22;30583;48.714;9.386;2022-07-15T13:05:46;28.30;33.50
44851;DHT22;30583;48.714;9.386;2022-07-15T13:08:20;28.30;33.50
44851;DHT22;30583;48.714;9.386;2022-07-15T13:10:48;28.70;33.80
44851;DHT22;30583;48.714;9.386;2022-07-15T13:13:16;28.90;33.40
44851;DHT22;30583;48.714;9.386;2022-07-15T13:15:43;28.50;33.30
44851;DHT22;30583;48.714;9.386;2022-07-15T13:18:09;28.30;33.80
44851;DHT22;30583;48.714;9.386;2022-07-15T13:20:35;28.90;33.30
44851;DHT22;30583;48.714;9.386;2022-07-15T13:23:01;29.00;33.90
44851;DHT22;30583;48.714;9.386;2022-07-15T13:25:28;29.40;33.30
44851;DHT22;30583;48.714;9.386;2022-07-15T13:27:55;29.20;33.10
44851;DHT22;30583;48.714;9.386;2022-07-15T13:30:21;29.10;33.80
44851;DHT22;30583;48.714;9.386;2022-07-15T13:32:46;29.10;33.00
44851;DHT22;30583;48.714;9.386;2022-07-15T13:35:13;28.80;33.50
44851;DHT22;30583;48.714;9.386;2022-07-15T13:37:39;28.90;32.90
44851;DHT22;30583;48.714;9.386;2022-07-15T13:40:07;29.10;32.70
44851;DHT22;30583;48.714;9.386;2022-07-15T13:42:33;29.40;32.00
44851;DHT22;30583;48.714;9.386;2022-07-15T13:44:59;28.90;31.90
44851;DHT22;30583;48.714;9.386;2022-07-15T13:47:25;29.20;31.50
44851;DHT22;30583;48.714;9.386;2022-07-15T13:49:52;29.00;32.80
44851;DHT22;30583;48.714;9.386;2022-07-15T13:52:44;28.80;32.90
44851;DHT22;30583;48.714;9.386;2022-07-15T13:55:09;28.90;33.60
44851;DHT22;30583;48.714;9.386;2022-07-15T13:57:36;29.00;32.70
44851;DHT22;30583;48.714;9.386;2022-07-15T14:00:04;29.00;32.70
44851;DHT22;30583;48.714;9.386;2022-07-15T14:02:30;29.30;33.30
44851;DHT22;30583;48.714;9.386;2022-07-15T14:04:55;29.70;32.50
44851;DHT22;30583;48.714;9.386;2022-07-15T14:07:21;29.50;32.00
44851;DHT22;30583;48.714;9.386;2022-07-15T14:09:46;29.80;30.50
44851;DHT22;30583;48.714;9.386;2022-07-15T14:12:12;29.40;30.60
44851;DHT22;30583;48.714;9.386;2022-07-15T14:14:37;29.30;31.50
44851;DHT22;30583;48.714;9.386;2022-07-15T14:17:03;29.90;31.10
44851;DHT22;30583;48.714;9.386;2022-07-15T14:19:28;28.70;32.80
44851;DHT22;30583;48.714;9.386;2022-07-15T14:21:54;28.40;32.60
44851;DHT22;30583;48.714;9.386;2022-07-15T14:24:20;28.00;33.50
44851;DHT22;30583;48.714;9.386;2022-07-15T14:26:45;28.40;32.70
44851;DHT22;30583;48.714;9.386;2022-07-15T14:29:11;29.20;32.00
44851;DHT22;30583;48.714;9.386;2022-07-15T14:31:37;29.00;32.70
44851;DHT22;30583;48.714;9.386;2022-07-15T14:34:02;29.60;32.30
44851;DHT22;30583;48.714;9.386;2022-07-15T14:36:28;29.50;31.40
44851;DHT22;30583;48.714;9.386;2022-07-15T14:38:53;29.70;31.80
44851;DHT22;30583;48.714;9.386;2022-07-15T14:41:19;30.50;31.30
44851;DHT22;30583;48.714;9.386;2022-07-15T14:43:44;30.20;31.20
44851;DHT22;30583;48.714;9.386;2022-07-15T14:46:10;29.00;32.50
44851;DHT22;30583;48.714;9.386;2022-07-15T14:48:36;29.20;32.40
44851;DHT22;30583;48.714;9.386;2022-07-15T14:51:01;29.50;31.10
44851;DHT22;30583;48.714;9.386;2022-07-15T14:53:27;30.00;31.80
44851;DHT22;30583;48.714;9.386;2022-07-15T14:55:52;31.10;29.70
44851;DHT22;30583;48.714;9.386;2022-07-15T14:58:18;29.60;31.60
44851;DHT22;30583;48.714;9.386;2022-07-15T15:00:45;30.20;30.90
44851;DHT22;30583;48.714;9.386;2022-07-15T15:03:11;30.20;31.30
44851;DHT22;30583;48.714;9.386;2022-07-15T15:05:36;30.00;31.10
44851;DHT22;30583;48.714;9.386;2022-07-15T15:08:02;29.70;31.80
44851;DHT22;30583;48.714;9.386;2022-07-15T15:10:28;29.70;31.80
44851;DHT22;30583;48.714;9.386;2022-07-15T15:12:53;30.40;30.50
44851;DHT22;30583;48.714;9.386;2022-07-15T15:15:19;30.00;31.30
44851;DHT22;30583;48.714;9.386;2022-07-15T15:17:45;29.70;31.90
44851;DHT22;30583;48.714;9.386;2022-07-15T15:20:11;30.20;31.20
44851;DHT22;30583;48.714;9.386;2022-07-15T15:22:37;30.70;29.80
44851;DHT22;30583;48.714;9.386;2022-07-15T15:25:04;30.30;31.20
44851;DHT22;30583;48.714;9.386;2022-07-15T15:27:30;29.70;30.70
44851;DHT22;30583;48.714;9.386;2022-07-15T15:29:56;29.70;31.80
44851;DHT22;30583;48.714;9.386;2022-07-15T15:32:21;30.30;30.80
44851;DHT22;30583;48.714;9.386;2022-07-15T15:34:47;29.00;31.90
44851;DHT22;30583;48.714;9.386;2022-07-15T15:37:13;29.30;32.80
44851;DHT22;30583;48.714;9.386;2022-07-15T15:39:39;29.80;31.50
44851;DHT22;30583;48.714;9.386;2022-07-15T15:42:05;30.10;30.80
44851;DHT22;30583;48.714;9.386;2022-07-15T15:44:31;30.50;30.80
44851;DHT22;30583;48.714;9.386;2022-07-15T15:46:57;30.70;29.80
44851;DHT22;30583;48.714;9.386;2022-07-15T15:49:22;30.70;30.20
44851;DHT22;30583;48.714;9.386;2022-07-15T15:51:48;30.10;30.70
44851;DHT22;30583;48.714;9.386;2022-07-15T15:54:14;29.50;31.60
44851;DHT22;30583;48.714;9.386;2022-07-15T15:56:39;28.70;32.10
44851;DHT22;30583;48.714;9.386;2022-07-15T15:59:05;29.30;31.80
44851;DHT22;30583;48.714;9.386;2022-07-15T16:01:32;29.40;31.20
44851;DHT22;30583;48.714;9.386;2022-07-15T16:03:58;29.50;31.20
44851;DHT22;30583;48.714;9.386;2022-07-15T16:06:23;28.70;32.00
44851;DHT22;30583;48.714;9.386;2022-07-15T16:08:50;28.70;31.80
44851;DHT22;30583;48.714;9.386;2022-07-15T16:11:15;29.30;31.40
44851;DHT22;30583;48.714;9.386;2022-07-15T16:13:41;30.10;30.60